Time;durP1;ratioP1;P1;durP2;ratioP2;P2;SDS_P1;SDS_P2;PMS_P1;PMS_P2;Temp;Humidity;BMP_temperature;BMP_pressure;BME280_temperature;BME280_humidity;BME280_pressure;Samples;Min_cycle;Max_cycle;Signal;HPM_P1;HPM_P2
2021/11/28 00:00:48;;;;;;;;;;;10.80;73.30;;;;;;5019371;28;88803;-71
2021/11/28 00:03:15;;;;;;;;;;;10.70;73.30;;;;;;5018785;28;88860;-73
2021/11/28 00:05:42;;;;;;;;;;;10.80;73.30;;;;;;5021127;28;88587;-72
2021/11/28 00:15:55;;;;;;;;;;;10.70;73.30;;;;;;5021215;28;86494;-73
2021/11/28 00:18:21;;;;;;;;;;;10.80;73.30;;;;;;5020837;28;87233;-74
2021/11/28 00:20:46;;;;;;;;;;;10.70;73.30;;;;;;5020256;28;88984;-73
2021/11/28 00:23:12;;;;;;;;;;;10.70;73.30;;;;;;5019873;28;88108;-73
2021/11/28 00:25:37;;;;;;;;;;;10.70;73.30;;;;;;5021776;28;88986;-72
2021/11/28 00:28:03;;;;;;;;;;;10.70;73.30;;;;;;5024918;28;88982;-72
2021/11/28 00:30:29;;;;;;;;;;;10.70;73.30;;;;;;5022600;28;87557;-73
2021/11/28 00:32:55;;;;;;;;;;;10.70;73.40;;;;;;5022591;28;88057;-72
2021/11/28 00:35:21;;;;;;;;;;;10.70;73.30;;;;;;5021177;28;87183;-73
2021/11/28 00:37:47;;;;;;;;;;;10.70;73.30;;;;;;5021559;28;87746;-72
2021/11/28 00:40:12;;;;;;;;;;;10.70;73.30;;;;;;5022693;28;89047;-72
2021/11/28 00:42:38;;;;;;;;;;;10.70;73.80;;;;;;5020743;28;89002;-74
2021/11/28 00:45:04;;;;;;;;;;;10.70;73.30;;;;;;5018823;28;88940;-74
2021/11/28 00:47:30;;;;;;;;;;;10.70;73.30;;;;;;5020598;28;88210;-75
2021/11/28 00:52:37;;;;;;;;;;;10.70;73.40;;;;;;5018265;28;87960;-76
2021/11/28 00:55:03;;;;;;;;;;;10.70;73.40;;;;;;5017744;28;87145;-76
2021/11/28 00:57:29;;;;;;;;;;;10.70;73.30;;;;;;5021153;28;89427;-75
2021/11/28 00:59:55;;;;;;;;;;;10.70;73.30;;;;;;5021868;28;89205;-74
2021/11/28 01:02:21;;;;;;;;;;;10.70;73.30;;;;;;5021478;28;87241;-75
2021/11/28 01:04:47;;;;;;;;;;;10.70;73.30;;;;;;5021603;28;87615;-75
2021/11/28 01:07:12;;;;;;;;;;;10.70;73.30;;;;;;5020931;28;87614;-75
2021/11/28 01:09:38;;;;;;;;;;;10.70;73.30;;;;;;5021770;28;87144;-76
2021/11/28 01:12:05;;;;;;;;;;;10.70;73.40;;;;;;5023086;28;88096;-76
2021/11/28 01:14:30;;;;;;;;;;;10.70;73.30;;;;;;5018969;28;87152;-77
2021/11/28 01:16:56;;;;;;;;;;;10.70;73.30;;;;;;5018315;28;87281;-75
2021/11/28 01:19:23;;;;;;;;;;;10.70;73.40;;;;;;5016475;28;88193;-76
2021/11/28 01:22:08;;;;;;;;;;;10.70;73.40;;;;;;5021318;28;87146;-74
2021/11/28 01:24:34;;;;;;;;;;;10.70;73.40;;;;;;5022245;28;87864;-74
2021/11/28 01:27:01;;;;;;;;;;;10.60;73.30;;;;;;5021455;28;89705;-73
2021/11/28 01:29:26;;;;;;;;;;;10.70;73.40;;;;;;5021812;28;86434;-74
2021/11/28 01:31:52;;;;;;;;;;;10.60;73.30;;;;;;5021879;28;87780;-75
2021/11/28 01:34:17;;;;;;;;;;;10.70;73.40;;;;;;5022019;28;87826;-75
2021/11/28 01:36:43;;;;;;;;;;;10.70;73.40;;;;;;5019443;28;89690;-75
2021/11/28 01:39:09;;;;;;;;;;;10.70;73.50;;;;;;5019779;28;88199;-76
2021/11/28 01:41:35;;;;;;;;;;;10.60;73.40;;;;;;5018795;28;88437;-76
2021/11/28 01:44:01;;;;;;;;;;;10.70;73.50;;;;;;5018420;28;88012;-76
2021/11/28 01:46:27;;;;;;;;;;;10.60;73.40;;;;;;5018635;28;88671;-76
2021/11/28 01:48:53;;;;;;;;;;;10.60;73.40;;;;;;5017245;28;87923;-75
2021/11/28 01:51:19;;;;;;;;;;;10.70;73.50;;;;;;5019567;28;88864;-74
2021/11/28 01:53:44;;;;;;;;;;;10.60;73.50;;;;;;5017355;28;86665;-73
2021/11/28 01:56:10;;;;;;;;;;;10.60;73.50;;;;;;5021069;28;87152;-74
2021/11/28 01:58:37;;;;;;;;;;;10.60;73.40;;;;;;5018556;28;88152;-74
2021/11/28 02:01:04;;;;;;;;;;;10.60;73.50;;;;;;5017312;28;88116;-74
2021/11/28 02:03:30;;;;;;;;;;;10.60;73.50;;;;;;5021917;28;88632;-75
2021/11/28 02:05:57;;;;;;;;;;;10.60;73.40;;;;;;5018356;28;89591;-75
2021/11/28 02:08:23;;;;;;;;;;;10.60;73.40;;;;;;5020059;28;87276;-75
2021/11/28 02:10:49;;;;;;;;;;;10.60;73.40;;;;;;5020971;28;87196;-74
2021/11/28 02:13:15;;;;;;;;;;;10.60;73.50;;;;;;5020445;28;87948;-74
2021/11/28 02:15:41;;;;;;;;;;;10.60;73.50;;;;;;5022188;28;87164;-75
2021/11/28 02:18:08;;;;;;;;;;;10.60;73.40;;;;;;5019527;28;86432;-76
2021/11/28 02:20:34;;;;;;;;;;;10.60;73.50;;;;;;5017224;28;87125;-78
2021/11/28 02:23:00;;;;;;;;;;;10.60;73.50;;;;;;5018195;28;87402;-77
2021/11/28 02:25:26;;;;;;;;;;;10.60;73.50;;;;;;5017873;28;90411;-75
2021/11/28 02:27:53;;;;;;;;;;;10.60;73.50;;;;;;5019297;28;87230;-74
2021/11/28 02:30:19;;;;;;;;;;;10.60;73.50;;;;;;5017199;28;88919;-75
2021/11/28 02:32:45;;;;;;;;;;;10.60;73.60;;;;;;5015280;28;89581;-76
2021/11/28 02:35:14;;;;;;;;;;;10.60;73.60;;;;;;5021093;28;87150;-74
2021/11/28 02:37:40;;;;;;;;;;;10.60;73.50;;;;;;5018648;28;89032;-76
2021/11/28 02:40:06;;;;;;;;;;;10.60;73.50;;;;;;5020292;28;87195;-75
2021/11/28 02:42:32;;;;;;;;;;;10.60;73.50;;;;;;5020738;28;86902;-74
2021/11/28 02:44:57;;;;;;;;;;;10.50;73.50;;;;;;5020300;28;88171;-75
2021/11/28 02:47:23;;;;;;;;;;;10.60;73.50;;;;;;5017426;28;87173;-74
2021/11/28 02:49:49;;;;;;;;;;;10.60;73.50;;;;;;5015418;28;88091;-75
2021/11/28 02:52:14;;;;;;;;;;;10.50;73.50;;;;;;5019676;28;88088;-73
2021/11/28 02:54:40;;;;;;;;;;;10.60;73.60;;;;;;5020548;28;87156;-75
2021/11/28 02:57:09;;;;;;;;;;;10.50;73.50;;;;;;5019664;28;89173;-75
2021/11/28 02:59:35;;;;;;;;;;;10.60;73.60;;;;;;5023598;28;87757;-74
2021/11/28 03:02:00;;;;;;;;;;;10.60;73.60;;;;;;5020034;28;87701;-73
2021/11/28 03:04:26;;;;;;;;;;;10.60;73.60;;;;;;5018882;28;87494;-75
2021/11/28 03:06:52;;;;;;;;;;;10.50;73.60;;;;;;5018921;28;86482;-75
2021/11/28 03:09:17;;;;;;;;;;;10.50;73.50;;;;;;5017669;28;87127;-76
2021/11/28 03:11:43;;;;;;;;;;;10.50;73.50;;;;;;5016303;28;88225;-75
2021/11/28 03:14:09;;;;;;;;;;;10.50;73.50;;;;;;5015241;28;88095;-77
2021/11/28 03:16:34;;;;;;;;;;;10.50;73.70;;;;;;5017242;28;89759;-75
2021/11/28 03:19:00;;;;;;;;;;;10.50;73.60;;;;;;5016280;28;88456;-73
2021/11/28 03:21:27;;;;;;;;;;;10.50;73.60;;;;;;5023138;28;88378;-74
2021/11/28 03:23:54;;;;;;;;;;;10.50;73.60;;;;;;5017717;28;90072;-75
2021/11/28 03:26:25;;;;;;;;;;;10.50;73.60;;;;;;5018145;28;88167;-76
2021/11/28 03:28:51;;;;;;;;;;;10.50;73.60;;;;;;5020638;28;88707;-73
2021/11/28 03:31:16;;;;;;;;;;;10.50;73.60;;;;;;5019857;28;88647;-74
2021/11/28 03:33:42;;;;;;;;;;;10.50;73.70;;;;;;5018823;28;87131;-74
2021/11/28 03:36:09;;;;;;;;;;;10.50;73.70;;;;;;5017611;28;87149;-75
2021/11/28 03:38:35;;;;;;;;;;;10.50;73.70;;;;;;5016785;28;88798;-75
2021/11/28 03:41:00;;;;;;;;;;;10.50;73.80;;;;;;5017804;28;87177;-76
2021/11/28 03:43:26;;;;;;;;;;;10.50;73.70;;;;;;5023181;28;87152;-77
2021/11/28 03:45:52;;;;;;;;;;;10.50;73.60;;;;;;5021412;28;87152;-77
2021/11/28 03:48:18;;;;;;;;;;;10.50;73.70;;;;;;5021409;28;87761;-76
2021/11/28 03:50:44;;;;;;;;;;;10.50;73.70;;;;;;5021913;28;87753;-75
2021/11/28 03:53:10;;;;;;;;;;;10.50;73.70;;;;;;5022356;28;87247;-75
2021/11/28 03:55:36;;;;;;;;;;;10.50;73.70;;;;;;5022484;28;87411;-76
2021/11/28 03:58:04;;;;;;;;;;;10.50;73.70;;;;;;5021529;28;89480;-75
2021/11/28 04:00:30;;;;;;;;;;;10.50;73.70;;;;;;5020451;28;87617;-75
2021/11/28 04:02:56;;;;;;;;;;;10.50;73.70;;;;;;5022913;28;88147;-73
2021/11/28 04:05:21;;;;;;;;;;;10.50;73.70;;;;;;5025213;28;87970;-74
2021/11/28 04:07:47;;;;;;;;;;;10.50;73.70;;;;;;5022020;28;87640;-74
2021/11/28 04:10:13;;;;;;;;;;;10.50;73.70;;;;;;5022093;28;87515;-74
2021/11/28 04:12:38;;;;;;;;;;;10.50;73.80;;;;;;5023609;28;87173;-77
2021/11/28 04:15:05;;;;;;;;;;;10.40;73.70;;;;;;5020845;28;87433;-74
2021/11/28 04:17:30;;;;;;;;;;;10.40;73.70;;;;;;5022390;28;88588;-73
2021/11/28 04:19:56;;;;;;;;;;;10.40;73.70;;;;;;5023505;28;86460;-74
2021/11/28 04:22:22;;;;;;;;;;;10.40;73.80;;;;;;5021079;28;87380;-76
2021/11/28 04:24:48;;;;;;;;;;;10.40;73.80;;;;;;5024857;28;88737;-76
2021/11/28 04:27:13;;;;;;;;;;;10.40;73.70;;;;;;5021659;28;88098;-75
2021/11/28 04:29:40;;;;;;;;;;;10.40;73.70;;;;;;5021919;28;87657;-74
2021/11/28 04:32:06;;;;;;;;;;;10.40;73.80;;;;;;5021810;28;87154;-75
2021/11/28 04:34:32;;;;;;;;;;;10.40;73.80;;;;;;5022499;28;87829;-74
2021/11/28 04:36:57;;;;;;;;;;;10.40;73.80;;;;;;5020815;28;88524;-76
2021/11/28 04:39:23;;;;;;;;;;;10.40;73.70;;;;;;5018159;28;88885;-75
2021/11/28 04:41:48;;;;;;;;;;;10.40;73.70;;;;;;5018069;28;87931;-76
2021/11/28 04:44:14;;;;;;;;;;;10.40;73.70;;;;;;5018773;28;86903;-76
2021/11/28 04:46:40;;;;;;;;;;;10.40;73.80;;;;;;5021582;28;87224;-76
2021/11/28 04:49:06;;;;;;;;;;;10.40;73.70;;;;;;5018433;28;87799;-77
2021/11/28 04:51:31;;;;;;;;;;;10.40;73.70;;;;;;5018207;28;88143;-77
2021/11/28 04:53:57;;;;;;;;;;;10.40;74.30;;;;;;5017913;28;87986;-77
2021/11/28 04:56:24;;;;;;;;;;;10.40;73.80;;;;;;5017688;28;89614;-77
2021/11/28 04:58:49;;;;;;;;;;;10.40;73.80;;;;;;5018034;28;87160;-75
2021/11/28 05:01:15;;;;;;;;;;;10.40;73.70;;;;;;5018806;28;87648;-77
2021/11/28 05:03:41;;;;;;;;;;;10.40;73.70;;;;;;5018680;28;87246;-76
2021/11/28 05:06:06;;;;;;;;;;;10.40;73.80;;;;;;5019684;28;87205;-77
2021/11/28 05:08:32;;;;;;;;;;;10.40;73.70;;;;;;5022842;28;86869;-76
2021/11/28 05:10:57;;;;;;;;;;;10.30;73.70;;;;;;5020566;28;87170;-75
2021/11/28 05:13:23;;;;;;;;;;;10.40;73.80;;;;;;5021837;28;87147;-75
2021/11/28 05:15:48;;;;;;;;;;;10.40;73.80;;;;;;5020644;28;88647;-75
2021/11/28 05:18:14;;;;;;;;;;;10.40;73.80;;;;;;5021417;28;87461;-77
2021/11/28 05:20:39;;;;;;;;;;;10.30;73.70;;;;;;5021861;28;88166;-77
2021/11/28 05:23:05;;;;;;;;;;;10.30;73.70;;;;;;5018147;28;88193;-77
2021/11/28 05:25:31;;;;;;;;;;;10.30;73.70;;;;;;5018347;28;87236;-77
2021/11/28 05:27:56;;;;;;;;;;;10.30;73.70;;;;;;5019476;28;88602;-77
2021/11/28 05:30:22;;;;;;;;;;;10.30;73.70;;;;;;5023240;28;87807;-75
2021/11/28 05:32:47;;;;;;;;;;;10.30;73.70;;;;;;5022467;28;87123;-73
2021/11/28 05:35:13;;;;;;;;;;;10.30;73.70;;;;;;5021638;28;87838;-73
2021/11/28 05:37:38;;;;;;;;;;;10.30;73.70;;;;;;5021799;28;88006;-75
2021/11/28 05:40:04;;;;;;;;;;;10.30;73.70;;;;;;5019754;28;88224;-76
2021/11/28 05:42:30;;;;;;;;;;;10.30;73.70;;;;;;5021493;28;88603;-75
2021/11/28 05:44:55;;;;;;;;;;;10.30;73.70;;;;;;5021703;28;87195;-74
2021/11/28 05:47:21;;;;;;;;;;;10.30;73.70;;;;;;5019374;28;88319;-76
2021/11/28 05:49:46;;;;;;;;;;;10.30;73.70;;;;;;5016988;28;88108;-77
2021/11/28 05:52:12;;;;;;;;;;;10.30;73.80;;;;;;5021444;28;87182;-76
2021/11/28 05:54:38;;;;;;;;;;;10.30;74.40;;;;;;5019304;28;88639;-76
2021/11/28 05:57:04;;;;;;;;;;;10.30;73.80;;;;;;5021436;28;86428;-73
2021/11/28 05:59:29;;;;;;;;;;;10.30;73.80;;;;;;5020137;28;87178;-74
2021/11/28 06:01:55;;;;;;;;;;;10.30;73.80;;;;;;5019934;28;88638;-75
2021/11/28 06:04:21;;;;;;;;;;;10.30;73.70;;;;;;5019844;28;88210;-75
2021/11/28 06:06:46;;;;;;;;;;;10.30;73.70;;;;;;5019527;28;88629;-75
2021/11/28 06:09:12;;;;;;;;;;;10.30;73.80;;;;;;5018396;28;87947;-76
2021/11/28 06:11:37;;;;;;;;;;;10.30;73.70;;;;;;5017983;28;87205;-76
2021/11/28 06:14:03;;;;;;;;;;;10.30;73.80;;;;;;5019860;28;87679;-76
2021/11/28 06:16:28;;;;;;;;;;;10.30;73.80;;;;;;5016416;28;87831;-76
2021/11/28 06:18:54;;;;;;;;;;;10.30;73.70;;;;;;5016644;28;88505;-76
2021/11/28 06:21:20;;;;;;;;;;;10.30;73.70;;;;;;5017792;28;88716;-75
2021/11/28 06:23:45;;;;;;;;;;;10.20;73.80;;;;;;5018827;28;87205;-75
2021/11/28 06:26:11;;;;;;;;;;;10.30;73.80;;;;;;5019872;28;87143;-74
2021/11/28 06:28:36;;;;;;;;;;;10.30;73.80;;;;;;5019852;28;90095;-74
2021/11/28 06:31:02;;;;;;;;;;;10.30;73.70;;;;;;5018975;28;88081;-75
2021/11/28 06:33:28;;;;;;;;;;;10.20;73.70;;;;;;5019340;28;88987;-75
2021/11/28 06:35:54;;;;;;;;;;;10.30;73.70;;;;;;5017144;28;88926;-76
2021/11/28 06:38:20;;;;;;;;;;;10.30;73.70;;;;;;5017558;28;88622;-75
2021/11/28 06:40:45;;;;;;;;;;;10.30;73.70;;;;;;5020427;28;88459;-73
2021/11/28 06:43:11;;;;;;;;;;;10.30;73.70;;;;;;5020448;28;88441;-75
2021/11/28 06:45:37;;;;;;;;;;;10.20;73.70;;;;;;5020913;28;87504;-74
2021/11/28 06:48:03;;;;;;;;;;;10.30;73.70;;;;;;5020015;28;87406;-73
2021/11/28 06:50:29;;;;;;;;;;;10.30;73.70;;;;;;5020992;28;87247;-73
2021/11/28 06:52:54;;;;;;;;;;;10.30;73.70;;;;;;5020001;28;88824;-74
2021/11/28 06:55:20;;;;;;;;;;;10.30;73.60;;;;;;5023550;28;87197;-74
2021/11/28 06:57:45;;;;;;;;;;;10.30;73.70;;;;;;5020340;28;87373;-73
2021/11/28 07:00:11;;;;;;;;;;;10.30;74.20;;;;;;5019069;28;88053;-75
2021/11/28 07:02:36;;;;;;;;;;;10.30;73.50;;;;;;5019060;28;87171;-74
2021/11/28 07:05:02;;;;;;;;;;;10.30;73.60;;;;;;5020238;28;87126;-73
2021/11/28 07:07:28;;;;;;;;;;;10.30;73.60;;;;;;5019165;28;87724;-74
2021/11/28 07:09:53;;;;;;;;;;;10.30;73.60;;;;;;5018824;28;86470;-75
2021/11/28 07:12:19;;;;;;;;;;;10.20;73.50;;;;;;5018461;28;87138;-75
2021/11/28 07:14:45;;;;;;;;;;;10.20;73.60;;;;;;5018161;28;89490;-76
2021/11/28 07:17:10;;;;;;;;;;;10.20;73.60;;;;;;5021329;28;88088;-75
2021/11/28 07:19:36;;;;;;;;;;;10.20;73.50;;;;;;5023201;28;87886;-74
2021/11/28 07:22:03;;;;;;;;;;;10.20;73.60;;;;;;5023721;28;88147;-75
2021/11/28 07:24:29;;;;;;;;;;;10.20;73.60;;;;;;5022657;28;88943;-74
2021/11/28 07:26:54;;;;;;;;;;;10.20;73.60;;;;;;5023210;28;88123;-74
2021/11/28 07:29:20;;;;;;;;;;;10.20;73.60;;;;;;5023015;28;87990;-75
2021/11/28 07:31:46;;;;;;;;;;;10.30;73.60;;;;;;5019814;28;88770;-74
2021/11/28 07:34:11;;;;;;;;;;;10.30;73.60;;;;;;5020142;28;86609;-76
2021/11/28 07:36:37;;;;;;;;;;;10.20;73.60;;;;;;5020997;28;87147;-76
2021/11/28 07:39:04;;;;;;;;;;;10.20;73.60;;;;;;5024091;28;87498;-75
2021/11/28 07:41:29;;;;;;;;;;;10.30;73.70;;;;;;5021080;28;88132;-76
2021/11/28 07:43:55;;;;;;;;;;;10.20;73.70;;;;;;5023144;28;88169;-72
2021/11/28 07:46:20;;;;;;;;;;;10.20;73.60;;;;;;5022479;28;87978;-75
2021/11/28 07:48:46;;;;;;;;;;;10.30;73.70;;;;;;5019802;28;88886;-76
2021/11/28 07:51:11;;;;;;;;;;;10.20;73.60;;;;;;5019952;28;87151;-75
2021/11/28 07:53:38;;;;;;;;;;;10.20;73.60;;;;;;5020691;28;88356;-73
2021/11/28 07:56:04;;;;;;;;;;;10.20;73.70;;;;;;5020548;28;87182;-75
2021/11/28 07:58:30;;;;;;;;;;;10.20;73.70;;;;;;5021248;28;90297;-76
2021/11/28 08:00:56;;;;;;;;;;;10.20;73.70;;;;;;5024656;28;87612;-73
2021/11/28 08:03:22;;;;;;;;;;;10.20;73.70;;;;;;5021403;28;88516;-75
2021/11/28 08:05:47;;;;;;;;;;;10.20;73.80;;;;;;5021096;28;89060;-74
2021/11/28 08:08:16;;;;;;;;;;;10.20;73.80;;;;;;5023115;28;87228;-75
2021/11/28 08:10:42;;;;;;;;;;;10.20;73.90;;;;;;5020557;28;89278;-74
2021/11/28 08:13:07;;;;;;;;;;;10.20;73.80;;;;;;5020821;28;88608;-75
2021/11/28 08:15:33;;;;;;;;;;;10.20;73.90;;;;;;5022240;28;87216;-71
2021/11/28 08:17:58;;;;;;;;;;;10.20;73.80;;;;;;5023336;28;87869;-73
2021/11/28 08:20:24;;;;;;;;;;;10.20;74.50;;;;;;5019844;28;88755;-72
2021/11/28 08:22:50;;;;;;;;;;;10.20;73.90;;;;;;5022155;28;86489;-72
2021/11/28 08:25:16;;;;;;;;;;;10.20;73.90;;;;;;5019127;28;88142;-73
2021/11/28 08:27:42;;;;;;;;;;;10.20;73.90;;;;;;5020166;28;87177;-73
2021/11/28 08:30:12;;;;;;;;;;;10.20;73.80;;;;;;5020192;28;88667;-73
2021/11/28 08:32:39;;;;;;;;;;;10.20;73.90;;;;;;5020607;28;88339;-72
2021/11/28 08:35:05;;;;;;;;;;;10.20;73.90;;;;;;5019960;28;87211;-74
2021/11/28 08:37:31;;;;;;;;;;;10.20;73.90;;;;;;5020396;28;87973;-75
2021/11/28 08:39:56;;;;;;;;;;;10.20;74.00;;;;;;5020314;28;87911;-75
2021/11/28 08:42:23;;;;;;;;;;;10.20;73.90;;;;;;5024060;28;87145;-74
2021/11/28 08:44:49;;;;;;;;;;;10.20;74.00;;;;;;5020076;28;89218;-74
2021/11/28 08:47:15;;;;;;;;;;;10.20;74.00;;;;;;5021837;28;86375;-73
2021/11/28 08:49:40;;;;;;;;;;;10.20;74.00;;;;;;5022521;28;87126;-73
2021/11/28 08:52:06;;;;;;;;;;;10.20;74.00;;;;;;5020582;28;88204;-75
2021/11/28 08:54:33;;;;;;;;;;;10.20;74.00;;;;;;5017304;28;89640;-77
2021/11/28 08:56:58;;;;;;;;;;;10.20;73.90;;;;;;5018812;28;89906;-75
2021/11/28 08:59:26;;;;;;;;;;;10.20;73.90;;;;;;5018198;28;88960;-76
2021/11/28 09:01:52;;;;;;;;;;;10.20;73.80;;;;;;5018395;28;87749;-76
2021/11/28 09:04:17;;;;;;;;;;;10.20;73.80;;;;;;5020502;28;87167;-75
2021/11/28 09:06:43;;;;;;;;;;;10.30;73.80;;;;;;5019098;28;87153;-75
2021/11/28 09:09:08;;;;;;;;;;;10.30;73.90;;;;;;5020372;28;87608;-76
2021/11/28 09:11:34;;;;;;;;;;;10.20;73.80;;;;;;5021728;28;87541;-74
2021/11/28 09:13:59;;;;;;;;;;;10.20;73.90;;;;;;5021717;28;87149;-74
2021/11/28 09:16:25;;;;;;;;;;;10.20;73.90;;;;;;5022192;28;89144;-75
2021/11/28 09:18:56;;;;;;;;;;;10.20;73.90;;;;;;5018170;28;89756;-74
2021/11/28 09:21:21;;;;;;;;;;;10.20;74.00;;;;;;5017784;28;87144;-74
2021/11/28 09:26:32;;;;;;;;;;;10.30;74.00;;;;;;5023992;28;87258;-58
2021/11/28 09:28:59;;;;;;;;;;;10.20;73.50;;;;;;5021068;28;87203;-58
2021/11/28 09:31:24;;;;;;;;;;;10.10;73.80;;;;;;5018303;28;89321;-58
2021/11/28 09:33:50;;;;;;;;;;;10.10;73.70;;;;;;5016742;28;87197;-58
2021/11/28 09:36:15;;;;;;;;;;;10.10;73.50;;;;;;5017882;28;87568;-58
2021/11/28 09:38:41;;;;;;;;;;;10.00;73.00;;;;;;5018117;28;89578;-58
2021/11/28 09:41:07;;;;;;;;;;;10.10;73.10;;;;;;5019180;28;87133;-59
2021/11/28 09:43:34;;;;;;;;;;;10.10;73.00;;;;;;5019132;28;88150;-59
2021/11/28 09:46:01;;;;;;;;;;;10.20;73.00;;;;;;5019486;28;89855;-59
2021/11/28 09:48:26;;;;;;;;;;;10.30;72.70;;;;;;5021523;28;87113;-59
2021/11/28 09:50:52;;;;;;;;;;;10.20;73.00;;;;;;5017400;28;89332;-59
2021/11/28 09:53:19;;;;;;;;;;;10.20;72.50;;;;;;5017071;28;87142;-59
2021/11/28 09:55:44;;;;;;;;;;;10.10;72.50;;;;;;5017899;28;88814;-59
2021/11/28 09:58:10;;;;;;;;;;;10.10;72.40;;;;;;5017481;28;89056;-57
2021/11/28 10:00:36;;;;;;;;;;;10.20;72.00;;;;;;5018419;28;86387;-58
2021/11/28 10:03:02;;;;;;;;;;;10.20;71.70;;;;;;5018028;28;87151;-58
2021/11/28 10:05:28;;;;;;;;;;;10.20;72.10;;;;;;5017268;28;88167;-62
2021/11/28 10:07:53;;;;;;;;;;;10.20;72.00;;;;;;5017464;28;88136;-59
2021/11/28 10:10:20;;;;;;;;;;;10.30;72.30;;;;;;5021088;28;88116;-59
2021/11/28 10:12:48;;;;;;;;;;;10.20;71.80;;;;;;5016898;28;87160;-59
2021/11/28 10:15:16;;;;;;;;;;;10.20;71.30;;;;;;5018352;28;89042;-59
2021/11/28 10:17:42;;;;;;;;;;;10.30;71.30;;;;;;5016662;28;89981;-59
2021/11/28 10:20:09;;;;;;;;;;;10.30;70.50;;;;;;5017160;28;87113;-59
2021/11/28 10:22:35;;;;;;;;;;;10.30;71.10;;;;;;5019496;28;87540;-58
2021/11/28 10:25:07;;;;;;;;;;;10.30;70.70;;;;;;5016893;28;87726;-58
2021/11/28 10:27:32;;;;;;;;;;;10.30;71.10;;;;;;5017469;28;88526;-58
2021/11/28 10:29:58;;;;;;;;;;;10.30;70.70;;;;;;5019765;28;87764;-58
2021/11/28 10:32:24;;;;;;;;;;;10.30;69.80;;;;;;5017788;28;88080;-58
2021/11/28 10:34:50;;;;;;;;;;;10.40;70.50;;;;;;5017892;28;87992;-58
2021/11/28 10:37:20;;;;;;;;;;;10.40;70.10;;;;;;5019071;28;87882;-58
2021/11/28 10:39:49;;;;;;;;;;;10.30;70.40;;;;;;5021039;28;87206;-58
2021/11/28 10:42:34;;;;;;;;;;;10.40;69.50;;;;;;5016603;28;87559;-58
2021/11/28 10:45:04;;;;;;;;;;;10.40;69.40;;;;;;5016994;28;88023;-59
2021/11/28 10:47:33;;;;;;;;;;;10.50;69.30;;;;;;5016464;28;87203;-59
2021/11/28 10:50:05;;;;;;;;;;;10.40;69.10;;;;;;5020857;28;87010;-60
2021/11/28 10:52:31;;;;;;;;;;;10.40;69.90;;;;;;5020943;28;88184;-60
2021/11/28 10:54:57;;;;;;;;;;;10.50;69.60;;;;;;5019718;28;87616;-60
2021/11/28 10:57:24;;;;;;;;;;;10.50;70.00;;;;;;5019319;28;88956;-59
2021/11/28 11:00:10;;;;;;;;;;;10.50;70.50;;;;;;5016565;28;87165;-60
2021/11/28 11:02:40;;;;;;;;;;;10.60;70.10;;;;;;5015763;28;88565;-60
2021/11/28 11:05:09;;;;;;;;;;;10.60;70.20;;;;;;5017898;28;88589;-54
2021/11/28 11:07:42;;;;;;;;;;;10.60;69.50;;;;;;5017953;28;87209;-58
2021/11/28 11:10:17;;;;;;;;;;;10.60;70.90;;;;;;5019205;28;87219;-60
2021/11/28 11:12:43;;;;;;;;;;;10.60;70.80;;;;;;5015852;28;88344;-64
2021/11/28 11:15:09;;;;;;;;;;;10.60;71.10;;;;;;5018581;28;86402;-60
2021/11/28 11:17:36;;;;;;;;;;;10.60;71.10;;;;;;5017459;28;87981;-60
2021/11/28 11:20:02;;;;;;;;;;;10.70;70.70;;;;;;5016476;28;87196;-60
2021/11/28 11:22:30;;;;;;;;;;;10.80;71.20;;;;;;5016411;28;88179;-60
2021/11/28 11:25:03;;;;;;;;;;;10.80;70.60;;;;;;5015964;28;88565;-60
2021/11/28 11:27:33;;;;;;;;;;;10.80;70.80;;;;;;5019639;28;87152;-60
2021/11/28 11:30:01;;;;;;;;;;;10.80;70.80;;;;;;5018111;28;89146;-57
2021/11/28 11:32:39;;;;;;;;;;;10.80;70.10;;;;;;5019032;28;87433;-57
2021/11/28 11:35:08;;;;;;;;;;;10.80;69.40;;;;;;5016368;28;87174;-57
2021/11/28 11:37:34;;;;;;;;;;;10.80;68.90;;;;;;5019639;28;89052;-58
2021/11/28 11:40:03;;;;;;;;;;;10.80;68.70;;;;;;5016539;28;86378;-56
2021/11/28 11:42:29;;;;;;;;;;;10.80;68.90;;;;;;5017994;28;87150;-56
2021/11/28 11:44:55;;;;;;;;;;;10.80;68.60;;;;;;5018420;28;89943;-53
2021/11/28 11:47:22;;;;;;;;;;;10.80;68.90;;;;;;5017737;28;88085;-61
2021/11/28 11:49:48;;;;;;;;;;;10.80;68.70;;;;;;5017578;28;90477;-49
2021/11/28 11:52:14;;;;;;;;;;;10.90;69.40;;;;;;5016340;28;88073;-60
2021/11/28 11:54:47;;;;;;;;;;;10.90;69.30;;;;;;5015762;28;87160;-58
2021/11/28 11:57:19;;;;;;;;;;;11.00;68.90;;;;;;5018645;28;88693;-58
2021/11/28 11:59:47;;;;;;;;;;;11.00;68.90;;;;;;5021758;28;87605;-58
2021/11/28 12:02:27;;;;;;;;;;;10.90;68.30;;;;;;5015893;28;87666;-58
2021/11/28 12:04:52;;;;;;;;;;;11.00;68.40;;;;;;5021845;28;86991;-58
2021/11/28 12:07:37;;;;;;;;;;;10.90;68.30;;;;;;5023043;28;88129;-58
2021/11/28 12:10:22;;;;;;;;;;;10.90;68.60;;;;;;5019839;28;89287;-57
2021/11/28 12:12:47;;;;;;;;;;;10.90;68.10;;;;;;5019398;28;90192;-58
2021/11/28 12:15:17;;;;;;;;;;;10.90;68.10;;;;;;5020817;28;87221;-58
2021/11/28 12:17:42;;;;;;;;;;;10.90;68.20;;;;;;5022234;28;88182;-48
2021/11/28 12:20:08;;;;;;;;;;;10.90;69.10;;;;;;5021451;28;88142;-59
2021/11/28 12:22:36;;;;;;;;;;;10.90;68.50;;;;;;5023593;28;87137;-59
2021/11/28 12:25:20;;;;;;;;;;;10.90;68.60;;;;;;5022682;28;88306;-55
2021/11/28 12:27:49;;;;;;;;;;;10.90;68.90;;;;;;5018657;28;87155;-67
2021/11/28 12:30:44;;;;;;;;;;;11.00;70.00;;;;;;5021797;28;87739;-65
2021/11/28 12:33:09;;;;;;;;;;;11.00;70.50;;;;;;5010226;28;89238;-59
2021/11/28 12:35:38;;;;;;;;;;;11.10;70.80;;;;;;5019435;28;88410;-60
2021/11/28 12:38:04;;;;;;;;;;;11.10;70.30;;;;;;5017916;28;88143;-60
2021/11/28 12:40:31;;;;;;;;;;;11.10;70.00;;;;;;5017540;28;87638;-51
2021/11/28 12:42:57;;;;;;;;;;;11.20;69.90;;;;;;5023931;28;87184;-67
2021/11/28 12:45:30;;;;;;;;;;;11.20;70.70;;;;;;5019726;28;88008;-66
2021/11/28 12:48:03;;;;;;;;;;;11.20;71.20;;;;;;5022353;28;87162;-66
2021/11/28 12:50:46;;;;;;;;;;;11.10;71.40;;;;;;5018726;28;87459;-66
2021/11/28 12:53:23;;;;;;;;;;;11.10;71.70;;;;;;5021249;28;87735;-62
2021/11/28 12:56:09;;;;;;;;;;;11.10;71.90;;;;;;5020239;28;86429;-63
2021/11/28 12:58:35;;;;;;;;;;;11.10;70.80;;;;;;5011154;28;91503;-65
2021/11/28 13:01:00;;;;;;;;;;;11.20;70.90;;;;;;5017422;28;88233;-65
2021/11/28 13:03:26;;;;;;;;;;;11.10;71.10;;;;;;5017269;28;89213;-65
2021/11/28 13:05:53;;;;;;;;;;;11.10;71.30;;;;;;5021303;28;88513;-65
2021/11/28 13:08:18;;;;;;;;;;;11.10;71.40;;;;;;5018022;28;87128;-65
2021/11/28 13:10:45;;;;;;;;;;;11.10;71.60;;;;;;5019401;28;87159;-65
2021/11/28 13:13:16;;;;;;;;;;;11.10;71.60;;;;;;5018792;28;87643;-65
2021/11/28 13:15:46;;;;;;;;;;;11.10;71.80;;;;;;5018303;28;87148;-65
2021/11/28 13:18:13;;;;;;;;;;;11.10;71.90;;;;;;5021204;28;88550;-65
2021/11/28 13:20:39;;;;;;;;;;;11.10;71.90;;;;;;5021315;28;88419;-62
2021/11/28 13:23:06;;;;;;;;;;;11.10;70.80;;;;;;5020208;28;87182;-61
2021/11/28 13:25:37;;;;;;;;;;;11.10;70.20;;;;;;5018120;28;89261;-66
2021/11/28 13:28:07;;;;;;;;;;;11.20;70.10;;;;;;5020239;28;90230;-66
2021/11/28 13:30:34;;;;;;;;;;;11.10;71.10;;;;;;5019708;28;88474;-67
2021/11/28 13:33:07;;;;;;;;;;;11.10;71.30;;;;;;5016865;28;89240;-66
2021/11/28 13:35:32;;;;;;;;;;;11.20;71.60;;;;;;5020651;28;87236;-65
2021/11/28 13:38:30;;;;;;;;;;;11.20;71.80;;;;;;5022029;28;88672;-66
2021/11/28 13:41:05;;;;;;;;;;;11.10;71.90;;;;;;4995960;28;87829;-66
2021/11/28 13:43:31;;;;;;;;;;;11.20;72.00;;;;;;5019955;28;87142;-66
2021/11/28 13:45:57;;;;;;;;;;;11.20;72.10;;;;;;5019364;28;87446;-66
2021/11/28 13:48:22;;;;;;;;;;;11.20;72.20;;;;;;5019014;28;87787;-66
2021/11/28 13:50:48;;;;;;;;;;;11.20;72.20;;;;;;5022713;28;87192;-66
2021/11/28 13:53:14;;;;;;;;;;;11.20;72.20;;;;;;5020275;28;88592;-65
2021/11/28 13:55:50;;;;;;;;;;;11.20;72.20;;;;;;5021448;28;87265;-67
2021/11/28 13:58:15;;;;;;;;;;;11.20;72.30;;;;;;5020763;28;88803;-67
2021/11/28 14:00:41;;;;;;;;;;;11.20;72.30;;;;;;5019386;28;88801;-67
2021/11/28 14:03:06;;;;;;;;;;;11.20;72.30;;;;;;5019201;28;87203;-67
2021/11/28 14:05:32;;;;;;;;;;;11.20;72.30;;;;;;5018561;28;87531;-66
2021/11/28 14:08:02;;;;;;;;;;;11.20;72.40;;;;;;5017412;28;88171;-67
2021/11/28 14:10:29;;;;;;;;;;;11.20;72.50;;;;;;5019041;28;86448;-65
2021/11/28 14:12:55;;;;;;;;;;;11.20;72.10;;;;;;5020024;28;88665;-72
2021/11/28 14:15:29;;;;;;;;;;;11.20;72.00;;;;;;5017473;28;87137;-60
2021/11/28 14:18:15;;;;;;;;;;;11.20;71.30;;;;;;5020697;28;88917;-66
2021/11/28 14:20:43;;;;;;;;;;;11.20;70.60;;;;;;5020261;28;89483;-62
2021/11/28 14:23:09;;;;;;;;;;;11.20;70.60;;;;;;5017336;28;87182;-67
2021/11/28 14:25:37;;;;;;;;;;;11.20;69.00;;;;;;5016844;28;87408;-66
2021/11/28 14:28:08;;;;;;;;;;;11.30;69.20;;;;;;5018232;28;89856;-66